sensor_id;sensor_type;location;lat;lon;timestamp;pressure;altitude;pressure_sealevel;temperature;humidity
76331;BME280;65148;51.912;15.570;2022-11-20T00:13:06;101127.98;;;-0.80;88.91
76331;BME280;65148;51.912;15.570;2022-11-20T00:28:07;101121.22;;;-0.76;89.02
76331;BME280;65148;51.912;15.570;2022-11-20T00:43:08;101130.26;;;-0.70;88.24
76331;BME280;65148;51.912;15.570;2022-11-20T00:58:37;101144.16;;;-1.01;88.74
76331;BME280;65148;51.912;15.570;2022-11-20T01:13:40;101142.37;;;-0.88;88.36
76331;BME280;65148;51.912;15.570;2022-11-20T01:28:42;101142.53;;;-0.96;88.25
76331;BME280;65148;51.912;15.570;2022-11-20T01:43:44;101139.11;;;-0.77;86.71
76331;BME280;65148;51.912;15.570;2022-11-20T01:59:01;101138.94;;;-0.55;85.75
76331;BME280;65148;51.912;15.570;2022-11-20T02:14:04;101131.52;;;-0.53;82.60
76331;BME280;65148;51.912;15.570;2022-11-20T02:29:05;101110.96;;;-0.40;80.95
76331;BME280;65148;51.912;15.570;2022-11-20T02:44:07;101122.27;;;-0.57;79.41
76331;BME280;65148;51.912;15.570;2022-11-20T02:59:27;101103.50;;;-0.90;79.31
76331;BME280;65148;51.912;15.570;2022-11-20T03:14:28;101099.02;;;-0.70;79.31
76331;BME280;65148;51.912;15.570;2022-11-20T03:29:29;101088.72;;;-0.80;78.29
76331;BME280;65148;51.912;15.570;2022-11-20T03:44:30;101072.06;;;-0.82;78.09
76331;BME280;65148;51.912;15.570;2022-11-20T03:59:54;101071.21;;;-0.95;78.05
76331;BME280;65148;51.912;15.570;2022-11-20T04:14:55;101081.30;;;-0.91;78.09
76331;BME280;65148;51.912;15.570;2022-11-20T04:29:56;101081.07;;;-1.02;78.58
76331;BME280;65148;51.912;15.570;2022-11-20T04:44:57;101084.72;;;-1.17;78.31
76331;BME280;65148;51.912;15.570;2022-11-20T05:00:21;101093.49;;;-1.36;78.91
76331;BME280;65148;51.912;15.570;2022-11-20T05:15:22;101087.77;;;-1.33;78.83
76331;BME280;65148;51.912;15.570;2022-11-20T05:30:23;101091.95;;;-1.65;78.92
76331;BME280;65148;51.912;15.570;2022-11-20T05:45:24;101079.94;;;-1.41;78.13
76331;BME280;65148;51.912;15.570;2022-11-20T06:00:50;101080.09;;;-1.49;78.37
76331;BME280;65148;51.912;15.570;2022-11-20T06:15:56;101078.44;;;-1.50;78.88
76331;BME280;65148;51.912;15.570;2022-11-20T06:30:58;101084.64;;;-1.43;77.82
76331;BME280;65148;51.912;15.570;2022-11-20T06:45:59;101084.91;;;-1.25;76.74
76331;BME280;65148;51.912;15.570;2022-11-20T07:01:18;101076.08;;;-1.19;76.29
76331;BME280;65148;51.912;15.570;2022-11-20T07:16:19;101071.94;;;-1.34;76.24
76331;BME280;65148;51.912;15.570;2022-11-20T07:31:20;101047.75;;;-1.06;75.93
76331;BME280;65148;51.912;15.570;2022-11-20T07:46:21;101060.95;;;-0.85;75.28
76331;BME280;65148;51.912;15.570;2022-11-20T08:01:46;101040.16;;;-1.03;75.23
76331;BME280;65148;51.912;15.570;2022-11-20T08:16:48;101038.13;;;-1.01;75.22
76331;BME280;65148;51.912;15.570;2022-11-20T08:31:49;101023.14;;;-0.56;74.34
76331;BME280;65148;51.912;15.570;2022-11-20T08:46:50;101025.36;;;-0.26;73.23
76331;BME280;65148;51.912;15.570;2022-11-20T09:01:52;101013.63;;;-0.25;72.64
76331;BME280;65148;51.912;15.570;2022-11-20T09:17:10;101004.83;;;-0.46;72.52
76331;BME280;65148;51.912;15.570;2022-11-20T09:32:15;101000.85;;;-0.17;72.33
76331;BME280;65148;51.912;15.570;2022-11-20T09:47:26;100997.05;;;0.17;71.40
76331;BME280;65148;51.912;15.570;2022-11-20T10:03:00;100972.90;;;0.30;69.80
76331;BME280;65148;51.912;15.570;2022-11-20T10:48:40;100939.55;;;1.39;66.99
76331;BME280;65148;51.912;15.570;2022-11-20T11:03:43;100932.78;;;1.91;65.89
76331;BME280;65148;51.912;15.570;2022-11-20T11:18:44;100919.38;;;2.21;64.96
76331;BME280;65148;51.912;15.570;2022-11-20T11:33:45;100903.59;;;2.43;63.38
76331;BME280;65148;51.912;15.570;2022-11-20T11:49:15;100890.30;;;2.48;60.31
76331;BME280;65148;51.912;15.570;2022-11-20T12:19:31;100865.04;;;2.37;61.03
76331;BME280;65148;51.912;15.570;2022-11-20T13:03:16;100834.67;;;2.07;61.66
76331;BME280;65148;51.912;15.570;2022-11-20T13:18:20;100821.69;;;2.34;61.75
76331;BME280;65148;51.912;15.570;2022-11-20T13:33:52;100807.66;;;2.32;62.36
76331;BME280;65148;51.912;15.570;2022-11-20T13:48:55;100814.25;;;2.47;61.48
76331;BME280;65148;51.912;15.570;2022-11-20T14:03:58;100787.51;;;2.76;60.82
76331;BME280;65148;51.912;15.570;2022-11-20T14:34:27;100779.17;;;2.31;62.46
76331;BME280;65148;51.912;15.570;2022-11-20T14:49:30;100784.56;;;2.42;63.39
76331;BME280;65148;51.912;15.570;2022-11-20T15:04:32;100788.35;;;2.11;64.30
76331;BME280;65148;51.912;15.570;2022-11-20T15:19:32;100794.87;;;1.74;64.71
76331;BME280;65148;51.912;15.570;2022-11-20T15:34:52;100788.30;;;1.03;66.77
76331;BME280;65148;51.912;15.570;2022-11-20T15:49:53;100787.18;;;0.93;67.78
76331;BME280;65148;51.912;15.570;2022-11-20T16:04:54;100768.41;;;1.11;67.59
76331;BME280;65148;51.912;15.570;2022-11-20T16:19:55;100760.96;;;1.13;67.70
76331;BME280;65148;51.912;15.570;2022-11-20T16:35:20;100767.42;;;0.87;68.58
76331;BME280;65148;51.912;15.570;2022-11-20T16:50:24;100760.37;;;0.75;69.69
76331;BME280;65148;51.912;15.570;2022-11-20T17:05:25;100760.77;;;0.53;70.52
76331;BME280;65148;51.912;15.570;2022-11-20T17:20:26;100754.74;;;0.33;71.48
76331;BME280;65148;51.912;15.570;2022-11-20T17:35:47;100759.20;;;0.21;72.09
76331;BME280;65148;51.912;15.570;2022-11-20T17:50:48;100763.46;;;0.28;72.74
76331;BME280;65148;51.912;15.570;2022-11-20T18:05:49;100759.20;;;0.21;72.71
76331;BME280;65148;51.912;15.570;2022-11-20T18:20:52;100756.13;;;0.42;72.21
76331;BME280;65148;51.912;15.570;2022-11-20T18:36:18;100751.50;;;0.31;73.40
76331;BME280;65148;51.912;15.570;2022-11-20T18:51:19;100743.90;;;0.28;75.01
76331;BME280;65148;51.912;15.570;2022-11-20T19:06:20;100744.65;;;0.35;76.32
76331;BME280;65148;51.912;15.570;2022-11-20T19:21:23;100743.38;;;0.13;78.18
76331;BME280;65148;51.912;15.570;2022-11-20T19:36:45;100740.67;;;0.19;77.80
76331;BME280;65148;51.912;15.570;2022-11-20T19:51:48;100746.57;;;0.28;77.30
76331;BME280;65148;51.912;15.570;2022-11-20T20:06:50;100745.22;;;0.19;77.16
76331;BME280;65148;51.912;15.570;2022-11-20T20:21:51;100746.48;;;-0.15;78.18
76331;BME280;65148;51.912;15.570;2022-11-20T20:37:12;100758.63;;;-0.19;78.04
76331;BME280;65148;51.912;15.570;2022-11-20T20:52:15;100747.38;;;-0.28;77.79
76331;BME280;65148;51.912;15.570;2022-11-20T21:07:17;100752.73;;;-0.28;77.52
76331;BME280;65148;51.912;15.570;2022-11-20T21:22:18;100744.62;;;-0.46;78.09
76331;BME280;65148;51.912;15.570;2022-11-20T21:37:42;100722.11;;;-0.70;77.98
76331;BME280;65148;51.912;15.570;2022-11-20T21:52:43;100706.95;;;-0.83;78.42
76331;BME280;65148;51.912;15.570;2022-11-20T22:07:44;100700.84;;;-0.96;78.29
76331;BME280;65148;51.912;15.570;2022-11-20T22:22:45;100697.87;;;-1.26;78.76
76331;BME280;65148;51.912;15.570;2022-11-20T22:38:11;100667.55;;;-1.58;78.90
76331;BME280;65148;51.912;15.570;2022-11-20T22:53:12;100660.45;;;-1.84;78.66
76331;BME280;65148;51.912;15.570;2022-11-20T23:08:13;100650.58;;;-2.03;78.74
76331;BME280;65148;51.912;15.570;2022-11-20T23:23:14;100636.63;;;-2.25;78.48
76331;BME280;65148;51.912;15.570;2022-11-20T23:38:42;100621.25;;;-2.56;78.05
76331;BME280;65148;51.912;15.570;2022-11-20T23:53:43;100603.80;;;-2.78;79.76
